createdAt,value
2018-10-18T00:00:52.146Z,7.10
2018-10-18T00:03:23.989Z,7.20
2018-10-18T00:05:53.885Z,7.20
2018-10-18T00:08:24.698Z,7.30
2018-10-18T00:10:56.550Z,7.30
2018-10-18T00:13:29.922Z,7.20
2018-10-18T00:15:59.722Z,7.10
2018-10-18T00:18:30.583Z,7.00
2018-10-18T00:21:02.462Z,6.90
2018-10-18T00:23:34.290Z,6.80
2018-10-18T00:26:04.122Z,6.80
2018-10-18T00:28:33.901Z,6.80
2018-10-18T00:31:04.830Z,6.80
2018-10-18T00:33:36.610Z,6.70
2018-10-18T00:36:07.503Z,6.70
2018-10-18T00:38:37.262Z,6.70
2018-10-18T00:41:08.096Z,6.60
2018-10-18T00:43:41.578Z,6.60
2018-10-18T00:46:11.406Z,6.70
2018-10-18T00:48:41.210Z,6.70
2018-10-18T00:51:12.058Z,6.70
2018-10-18T00:53:42.906Z,6.70
2018-10-18T00:56:13.749Z,6.70
2018-10-18T00:58:46.595Z,6.60
2018-10-18T01:01:17.498Z,6.50
2018-10-18T01:03:48.274Z,6.50
2018-10-18T01:06:28.682Z,6.40
2018-10-18T01:09:04.691Z,6.40
2018-10-18T01:11:36.566Z,6.30
2018-10-18T01:14:08.948Z,6.30
2018-10-18T01:16:39.750Z,6.40
2018-10-18T01:19:23.530Z,6.50
2018-10-18T01:21:53.341Z,6.40
2018-10-18T01:24:32.916Z,6.40
2018-10-18T01:27:07.338Z,6.30
2018-10-18T01:29:43.789Z,6.50
2018-10-18T01:32:13.774Z,6.50
2018-10-18T01:34:43.557Z,6.70
2018-10-18T01:37:24.362Z,6.70
2018-10-18T01:40:03.690Z,6.70
2018-10-18T01:42:36.446Z,6.50
2018-10-18T01:45:08.297Z,6.40
2018-10-18T01:47:46.026Z,6.30
2018-10-18T01:50:21.446Z,6.20
2018-10-18T01:52:51.238Z,6.10
2018-10-18T01:55:25.598Z,6.10
2018-10-18T01:57:55.374Z,6.20
2018-10-18T02:00:25.562Z,6.30
2018-10-18T02:02:56.331Z,6.30
2018-10-18T02:05:44.427Z,6.30
2018-10-18T02:08:14.969Z,6.30
2018-10-18T02:10:45.778Z,6.20
2018-10-18T02:13:33.727Z,6.20
2018-10-18T02:16:06.401Z,6.20
2018-10-18T02:18:40.466Z,6.20
2018-10-18T02:21:13.520Z,6.20
2018-10-18T02:23:43.396Z,6.10
2018-10-18T02:26:36.627Z,6.10
2018-10-18T02:29:06.426Z,5.90
2018-10-18T02:31:38.208Z,5.90
2018-10-18T02:34:13.757Z,5.80
2018-10-18T02:36:43.579Z,5.80
2018-10-18T02:39:17.802Z,5.70
2018-10-18T02:41:47.722Z,5.70
2018-10-18T02:44:19.538Z,5.70
2018-10-18T02:46:49.370Z,5.60
2018-10-18T02:49:19.187Z,5.60
2018-10-18T02:51:50.050Z,5.60
2018-10-18T02:54:23.366Z,5.70
2018-10-18T02:56:57.577Z,5.70
2018-10-18T02:59:34.642Z,5.70
2018-10-18T03:02:04.666Z,5.80
2018-10-18T03:04:34.534Z,5.80
2018-10-18T03:07:04.730Z,5.80
2018-10-18T03:09:36.106Z,5.80
2018-10-18T03:12:07.079Z,5.70
2018-10-18T03:14:36.843Z,5.70
2018-10-18T03:17:07.735Z,5.60
2018-10-18T03:19:44.188Z,5.60
2018-10-18T03:22:14.199Z,5.60
2018-10-18T03:24:45.014Z,5.50
2018-10-18T03:27:21.771Z,5.50
2018-10-18T03:29:58.076Z,5.40
2018-10-18T03:32:27.883Z,5.30
2018-10-18T03:34:59.698Z,5.30
2018-10-18T03:37:30.574Z,5.30
2018-10-18T03:40:01.445Z,5.40
2018-10-18T03:42:33.311Z,5.40
2018-10-18T03:45:03.154Z,5.50
2018-10-18T03:47:32.970Z,5.50
2018-10-18T03:50:04.838Z,5.40
2018-10-18T03:52:34.630Z,5.40
2018-10-18T03:55:08.251Z,5.50
2018-10-18T03:57:41.115Z,5.50
2018-10-18T04:00:17.509Z,5.50
2018-10-18T04:03:01.686Z,5.60
2018-10-18T04:05:34.638Z,5.50
2018-10-18T04:08:05.910Z,5.40
2018-10-18T04:10:35.798Z,5.30
2018-10-18T04:13:09.276Z,5.20
2018-10-18T04:15:40.158Z,5.20
2018-10-18T04:18:10.030Z,5.10
2018-10-18T04:20:43.514Z,5.10
2018-10-18T04:23:19.398Z,5.00
2018-10-18T04:25:49.222Z,5.10
2018-10-18T04:28:25.582Z,5.20
2018-10-18T04:30:56.490Z,5.20
2018-10-18T04:33:28.353Z,5.20
2018-10-18T04:36:04.193Z,5.20
2018-10-18T04:38:34.938Z,5.10
2018-10-18T04:41:05.858Z,5.00
2018-10-18T04:43:40.102Z,4.90
2018-10-18T04:46:09.893Z,4.90
2018-10-18T04:48:40.772Z,4.80
2018-10-18T04:51:11.633Z,4.80
2018-10-18T04:53:42.502Z,4.90
2018-10-18T04:56:17.298Z,5.00
2018-10-18T04:58:47.425Z,5.00
2018-10-18T05:01:19.396Z,5.00
2018-10-18T05:03:50.162Z,5.00
2018-10-18T05:06:22.037Z,5.00
2018-10-18T05:08:56.129Z,5.20
2018-10-18T05:11:26.053Z,5.20
2018-10-18T05:13:58.913Z,5.30
2018-10-18T05:16:28.765Z,5.30
2018-10-18T05:19:02.393Z,5.20
2018-10-18T05:21:34.225Z,5.10
2018-10-18T05:24:05.494Z,5.20
2018-10-18T05:26:35.361Z,5.10
2018-10-18T05:29:12.733Z,5.00
2018-10-18T05:31:42.678Z,5.00
2018-10-18T05:34:14.437Z,5.00
2018-10-18T05:36:44.229Z,5.10
2018-10-18T05:39:14.015Z,5.20
2018-10-18T05:41:44.929Z,5.20
2018-10-18T05:44:15.733Z,5.10
2018-10-18T05:46:46.649Z,5.00
2018-10-18T05:49:17.495Z,5.00
2018-10-18T05:51:47.185Z,5.10
2018-10-18T05:54:19.096Z,5.20
2018-10-18T05:56:49.941Z,5.40
2018-10-18T05:59:19.898Z,5.50
2018-10-18T06:01:49.717Z,5.50
2018-10-18T06:04:19.594Z,5.50
2018-10-18T06:06:49.489Z,5.50
2018-10-18T06:09:31.883Z,5.50
2018-10-18T06:12:05.301Z,5.50
2018-10-18T06:14:35.088Z,5.50
2018-10-18T06:17:07.015Z,5.60
2018-10-18T06:19:36.893Z,5.70
2018-10-18T06:22:07.833Z,5.90
2018-10-18T06:24:38.673Z,6.10
2018-10-18T06:27:08.594Z,6.20
2018-10-18T06:29:40.461Z,6.30
2018-10-18T06:32:12.290Z,6.50
2018-10-18T06:34:42.221Z,6.80
2018-10-18T06:37:12.237Z,7.10
2018-10-18T06:39:41.982Z,7.20
2018-10-18T06:42:11.970Z,7.40
2018-10-18T06:44:42.870Z,7.50
2018-10-18T06:47:12.953Z,7.70
2018-10-18T06:49:43.610Z,7.90
2018-10-18T06:52:13.545Z,8.30
2018-10-18T06:54:43.366Z,8.70
2018-10-18T06:57:15.217Z,9.40
2018-10-18T06:59:45.141Z,9.80
2018-10-18T07:02:15.081Z,10.30
2018-10-18T07:04:44.983Z,10.90
2018-10-18T07:07:14.913Z,11.60
2018-10-18T07:09:48.489Z,12.00
2018-10-18T07:12:18.590Z,12.30
2018-10-18T07:14:48.523Z,12.60
2018-10-18T07:17:18.429Z,12.40
2018-10-18T07:19:59.310Z,12.00
2018-10-18T07:22:29.181Z,11.70
2018-10-18T07:24:59.028Z,11.40
2018-10-18T07:27:29.229Z,11.40
2018-10-18T07:29:59.986Z,11.60
2018-10-18T07:32:30.261Z,11.70
2018-10-18T07:35:01.152Z,12.20
2018-10-18T07:37:34.329Z,13.30
2018-10-18T07:40:04.195Z,14.30
2018-10-18T07:42:34.038Z,15.30
2018-10-18T07:45:03.972Z,16.30
2018-10-18T07:47:34.909Z,16.90
2018-10-18T07:50:06.953Z,17.00
2018-10-18T07:52:40.941Z,16.70
2018-10-18T07:55:11.959Z,16.30
2018-10-18T07:57:48.126Z,16.10
2018-10-18T08:00:21.779Z,15.80
2018-10-18T08:02:54.577Z,15.60
2018-10-18T08:05:27.625Z,15.60
2018-10-18T08:08:04.042Z,15.70
2018-10-18T08:10:48.150Z,15.80
2018-10-18T08:13:18.108Z,16.10
2018-10-18T08:15:48.801Z,16.40
2018-10-18T08:18:20.662Z,16.60
2018-10-18T08:20:50.581Z,16.70
2018-10-18T08:23:20.409Z,16.80
2018-10-18T08:25:50.242Z,16.90
2018-10-18T08:28:23.601Z,17.20
2018-10-18T08:30:55.124Z,17.20
2018-10-18T08:33:29.778Z,17.30
2018-10-18T08:35:59.701Z,17.50
2018-10-18T08:38:30.510Z,17.60
2018-10-18T08:41:04.830Z,17.60
2018-10-18T08:43:34.776Z,17.70
2018-10-18T08:46:05.065Z,17.70
2018-10-18T08:48:41.818Z,17.70
2018-10-18T08:51:11.619Z,18.30
2018-10-18T08:53:41.477Z,20.40
2018-10-18T08:56:11.302Z,22.40
2018-10-18T08:58:41.185Z,24.10
2018-10-18T09:01:14.755Z,25.20
2018-10-18T09:03:44.668Z,25.70
2018-10-18T09:06:15.529Z,26.00
2018-10-18T09:08:48.365Z,27.10
2018-10-18T09:11:18.169Z,27.90
2018-10-18T09:13:48.065Z,28.40
2018-10-18T09:16:18.949Z,29.60
2018-10-18T09:18:49.841Z,30.00
2018-10-18T09:21:24.954Z,29.30
2018-10-18T09:24:10.961Z,28.80
2018-10-18T09:26:46.329Z,28.30
2018-10-18T09:29:16.136Z,27.50
2018-10-18T09:31:51.993Z,28.40
2018-10-18T09:34:21.852Z,28.50
2018-10-18T09:36:52.696Z,28.30
2018-10-18T09:39:32.149Z,28.40
2018-10-18T09:42:06.901Z,28.80
2018-10-18T09:44:38.443Z,29.00
2018-10-18T09:47:09.201Z,30.00
2018-10-18T09:49:39.069Z,30.70
2018-10-18T09:52:08.969Z,30.40
2018-10-18T09:54:39.821Z,30.80
2018-10-18T09:57:09.781Z,31.10
2018-10-18T09:59:40.677Z,31.60
2018-10-18T10:02:19.005Z,31.30
2018-10-18T10:04:49.489Z,31.50
2018-10-18T10:07:41.981Z,31.20
2018-10-18T10:10:15.352Z,32.20
2018-10-18T10:12:48.218Z,33.00
2018-10-18T10:15:18.017Z,32.50
2018-10-18T10:17:47.978Z,30.90
2018-10-18T10:20:17.797Z,29.00
2018-10-18T10:22:48.698Z,29.60
2018-10-18T10:25:20.634Z,29.90
2018-10-18T10:27:50.517Z,30.00
2018-10-18T10:30:23.968Z,30.60
2018-10-18T10:32:54.857Z,31.30
2018-10-18T10:35:24.834Z,32.90
2018-10-18T10:37:54.588Z,33.10
2018-10-18T10:40:28.277Z,32.90
2018-10-18T10:42:59.117Z,32.40
2018-10-18T10:45:29.512Z,31.90
2018-10-18T10:48:00.271Z,30.70
2018-10-18T10:50:30.149Z,29.20
2018-10-18T10:52:59.969Z,28.20
2018-10-18T10:55:29.773Z,26.70
2018-10-18T10:57:59.712Z,27.10
2018-10-18T11:01:34.769Z,29.20
2018-10-18T11:04:04.629Z,29.60
2018-10-18T11:06:37.290Z,28.00
2018-10-18T11:09:10.801Z,25.90
2018-10-18T11:11:41.546Z,24.50
2018-10-18T11:14:12.434Z,23.60
2018-10-18T11:16:42.233Z,22.50
2018-10-18T11:19:12.257Z,22.80
2018-10-18T11:21:42.202Z,23.30
2018-10-18T11:24:22.502Z,25.30
2018-10-18T11:26:52.361Z,25.10
2018-10-18T11:29:24.170Z,24.00
2018-10-18T11:31:54.169Z,24.70
2018-10-18T11:34:25.090Z,27.00
2018-10-18T11:36:55.930Z,26.60
2018-10-18T11:39:33.077Z,26.00
2018-10-18T11:42:05.112Z,25.20
2018-10-18T11:44:38.869Z,24.00
2018-10-18T11:47:10.129Z,24.40
2018-10-18T11:49:42.169Z,26.90
2018-10-18T11:52:12.047Z,29.80
2018-10-18T11:54:41.934Z,30.70
2018-10-18T11:57:12.781Z,29.20
2018-10-18T11:59:42.689Z,28.90
2018-10-18T12:02:12.672Z,29.90
2018-10-18T12:04:42.557Z,30.70
2018-10-18T12:07:12.429Z,29.80
2018-10-18T12:09:42.363Z,31.10
2018-10-18T12:12:12.249Z,31.70
2018-10-18T12:14:43.093Z,31.70
2018-10-18T12:17:13.439Z,33.70
2018-10-18T12:19:44.232Z,34.20
2018-10-18T12:22:15.144Z,34.10
2018-10-18T12:24:49.581Z,33.90
2018-10-18T12:27:19.736Z,31.40
2018-10-18T12:29:51.604Z,31.10
2018-10-18T12:32:24.833Z,33.00
2018-10-18T12:34:55.741Z,34.10
2018-10-18T12:37:26.600Z,34.60
2018-10-18T12:39:57.601Z,35.40
2018-10-18T12:42:27.593Z,34.00
2018-10-18T12:45:03.625Z,33.20
2018-10-18T12:47:34.208Z,33.60
2018-10-18T12:50:05.369Z,34.40
2018-10-18T12:52:36.197Z,34.60
2018-10-18T12:55:11.749Z,33.00
2018-10-18T12:57:43.600Z,32.60
2018-10-18T13:00:13.509Z,31.90
2018-10-18T13:02:44.681Z,32.50
2018-10-18T13:05:14.584Z,32.90
2018-10-18T13:07:44.533Z,31.10
2018-10-18T13:10:14.425Z,28.50
2018-10-18T13:12:47.536Z,26.50
2018-10-18T13:15:27.925Z,25.00
2018-10-18T13:17:57.871Z,24.30
2018-10-18T13:20:29.925Z,23.80
2018-10-18T13:22:59.853Z,25.70
2018-10-18T13:25:29.695Z,28.60
2018-10-18T13:28:00.593Z,29.30
2018-10-18T13:30:32.473Z,28.10
2018-10-18T13:33:02.377Z,27.10
2018-10-18T13:35:33.302Z,24.70
2018-10-18T13:38:03.231Z,23.60
2018-10-18T13:40:33.145Z,23.10
2018-10-18T13:43:04.120Z,24.20
2018-10-18T13:45:33.953Z,25.50
2018-10-18T13:48:04.839Z,27.30
2018-10-18T13:50:36.712Z,29.00
2018-10-18T13:53:09.817Z,28.90
2018-10-18T13:55:46.301Z,26.20
2018-10-18T13:58:16.385Z,24.50
2018-10-18T14:00:47.192Z,23.40
2018-10-18T14:03:20.883Z,22.80
2018-10-18T14:05:51.737Z,23.30
2018-10-18T14:08:23.729Z,25.20
2018-10-18T14:10:55.435Z,26.40
2018-10-18T14:13:27.690Z,27.50
2018-10-18T14:15:58.553Z,28.40
2018-10-18T14:18:30.392Z,27.40
2018-10-18T14:21:00.329Z,25.20
2018-10-18T14:23:37.113Z,24.00
2018-10-18T14:26:10.623Z,24.30
2018-10-18T14:28:43.385Z,24.30
2018-10-18T14:31:15.245Z,25.60
2018-10-18T14:33:46.093Z,26.70
2018-10-18T14:36:32.793Z,26.50
2018-10-18T14:39:07.556Z,26.90
2018-10-18T14:41:37.809Z,27.20
2018-10-18T14:44:09.792Z,27.40
2018-10-18T14:46:39.621Z,26.50
2018-10-18T14:49:28.185Z,24.50
2018-10-18T14:52:00.077Z,22.80
2018-10-18T14:54:29.933Z,21.50
2018-10-18T14:56:59.884Z,21.30
2018-10-18T14:59:31.825Z,21.90
2018-10-18T15:02:01.724Z,21.70
2018-10-18T15:04:31.692Z,21.20
2018-10-18T15:07:02.461Z,21.40
2018-10-18T15:09:32.604Z,21.10
2018-10-18T15:12:09.922Z,20.90
2018-10-18T15:14:40.821Z,21.30
2018-10-18T15:17:11.902Z,21.40
2018-10-18T15:19:41.653Z,21.40
2018-10-18T15:22:11.709Z,21.10
2018-10-18T15:24:47.265Z,20.90
2018-10-18T15:27:18.289Z,20.80
2018-10-18T15:29:48.069Z,20.80
2018-10-18T15:32:17.983Z,20.50
2018-10-18T15:34:47.781Z,20.00
2018-10-18T15:37:19.677Z,19.70
2018-10-18T15:39:52.105Z,19.30
2018-10-18T15:42:32.285Z,19.00
2018-10-18T15:45:08.641Z,18.80
2018-10-18T15:47:38.658Z,18.70
2018-10-18T15:50:15.061Z,18.50
2018-10-18T15:52:46.889Z,18.20
2018-10-18T15:55:16.845Z,17.90
2018-10-18T15:57:47.746Z,17.70
2018-10-18T16:00:21.415Z,17.50
2018-10-18T16:02:51.269Z,17.20
2018-10-18T16:05:21.178Z,17.00
2018-10-18T16:07:51.101Z,16.80
2018-10-18T16:10:23.097Z,16.60
2018-10-18T16:12:59.054Z,16.40
2018-10-18T16:15:29.966Z,16.20
2018-10-18T16:18:01.790Z,15.90
2018-10-18T16:20:31.717Z,15.80
2018-10-18T16:23:02.610Z,15.60
2018-10-18T16:25:42.532Z,15.40
2018-10-18T16:28:24.192Z,15.20
2018-10-18T16:31:07.481Z,15.10
2018-10-18T16:33:39.127Z,15.00
2018-10-18T16:36:10.936Z,14.90
2018-10-18T16:38:42.789Z,14.80
2018-10-18T16:41:13.167Z,14.70
2018-10-18T16:43:43.857Z,14.60
2018-10-18T16:46:14.829Z,14.60
2018-10-18T16:48:44.693Z,14.50
2018-10-18T16:51:14.626Z,14.30
2018-10-18T16:53:46.592Z,14.20
2018-10-18T16:56:17.484Z,14.10
2018-10-18T16:58:48.245Z,14.00
2018-10-18T17:01:18.172Z,13.90
2018-10-18T17:03:51.284Z,13.90
2018-10-18T17:06:21.199Z,13.80
2018-10-18T17:08:51.101Z,13.70
2018-10-18T17:11:23.005Z,13.60
2018-10-18T17:13:54.832Z,13.60
2018-10-18T17:16:24.861Z,13.60
2018-10-18T17:19:01.197Z,13.60
2018-10-18T17:21:45.678Z,13.60
2018-10-18T17:24:23.065Z,13.60
2018-10-18T17:27:05.271Z,13.50
2018-10-18T17:29:35.148Z,13.40
2018-10-18T17:32:08.481Z,13.40
2018-10-18T17:34:39.688Z,13.20
2018-10-18T17:37:13.264Z,13.20
2018-10-18T17:39:43.320Z,13.10
2018-10-18T17:42:13.355Z,13.00
2018-10-18T17:44:43.161Z,13.00
2018-10-18T17:47:14.150Z,12.90
2018-10-18T17:49:44.033Z,12.90
2018-10-18T17:52:17.437Z,12.90
2018-10-18T17:54:47.313Z,12.90
2018-10-18T17:57:19.385Z,12.80
2018-10-18T17:59:49.636Z,12.80
2018-10-18T18:02:21.597Z,12.80
2018-10-18T18:04:55.657Z,12.70
2018-10-18T18:07:27.597Z,12.80
2018-10-18T18:09:59.450Z,12.70
2018-10-18T18:12:29.313Z,12.60
2018-10-18T18:15:03.159Z,12.50
2018-10-18T18:17:34.049Z,12.40
2018-10-18T18:20:09.725Z,12.40
2018-10-18T18:22:40.902Z,12.40
2018-10-18T18:25:13.249Z,12.40
2018-10-18T18:27:43.220Z,12.40
2018-10-18T18:30:14.613Z,12.40
2018-10-18T18:32:45.481Z,12.30
2018-10-18T18:35:15.440Z,12.30
2018-10-18T18:37:46.378Z,12.30
2018-10-18T18:40:16.406Z,12.30
2018-10-18T18:42:47.333Z,12.40
2018-10-18T18:45:21.322Z,12.40
2018-10-18T18:47:52.225Z,12.40
2018-10-18T18:50:22.240Z,12.40
2018-10-18T18:52:53.323Z,12.30
2018-10-18T18:55:23.149Z,12.30
2018-10-18T18:57:54.153Z,12.30
2018-10-18T19:00:26.086Z,12.30
2018-10-18T19:02:56.995Z,12.40
2018-10-18T19:05:26.853Z,12.40
2018-10-18T19:07:56.770Z,12.40
2018-10-18T19:10:26.737Z,12.30
2018-10-18T19:12:56.626Z,12.20
2018-10-18T19:15:26.541Z,12.20
2018-10-18T19:17:57.164Z,12.10
2018-10-18T19:20:27.100Z,12.10
2018-10-18T19:22:57.003Z,12.00
2018-10-18T19:25:26.925Z,11.90
2018-10-18T19:27:56.840Z,11.80
2018-10-18T19:30:26.839Z,11.80
2018-10-18T19:32:56.748Z,11.90
2018-10-18T19:35:26.768Z,11.80
2018-10-18T19:37:58.785Z,11.60
2018-10-18T19:40:28.788Z,11.40
2018-10-18T19:42:59.692Z,11.40
2018-10-18T19:45:35.013Z,11.30
2018-10-18T19:48:04.968Z,11.30
2018-10-18T19:50:35.920Z,11.30
2018-10-18T19:53:06.108Z,11.20
2018-10-18T19:55:38.612Z,11.30
2018-10-18T19:58:09.661Z,11.30
2018-10-18T20:00:49.674Z,11.40
2018-10-18T20:03:23.053Z,11.40
2018-10-18T20:05:56.052Z,11.30
2018-10-18T20:08:27.884Z,11.40
2018-10-18T20:10:59.824Z,11.40
2018-10-18T20:13:31.732Z,11.40
2018-10-18T20:16:01.689Z,11.40
2018-10-18T20:18:31.616Z,11.40
2018-10-18T20:21:03.730Z,11.40
2018-10-18T20:23:39.257Z,11.40
2018-10-18T20:26:11.499Z,11.50
2018-10-18T20:28:41.052Z,11.60
2018-10-18T20:31:11.039Z,11.60
2018-10-18T20:33:43.948Z,11.60
2018-10-18T20:36:14.880Z,11.50
2018-10-18T20:38:44.793Z,11.40
2018-10-18T20:41:14.851Z,11.40
2018-10-18T20:43:45.693Z,11.40
2018-10-18T20:46:15.537Z,11.40
2018-10-18T20:48:45.553Z,11.30
2018-10-18T20:51:16.879Z,11.30
2018-10-18T20:53:46.729Z,11.30
2018-10-18T20:56:20.184Z,11.20
2018-10-18T20:58:51.129Z,11.10
2018-10-18T21:01:21.209Z,11.00
2018-10-18T21:03:55.733Z,10.90
2018-10-18T21:06:25.894Z,10.80
2018-10-18T21:09:03.176Z,10.60
2018-10-18T21:11:34.054Z,10.50
2018-10-18T21:14:05.125Z,10.30
2018-10-18T21:16:35.058Z,10.10
2018-10-18T21:19:04.981Z,10.00
2018-10-18T21:21:36.917Z,9.90
2018-10-18T21:24:06.761Z,9.90
2018-10-18T21:26:36.732Z,9.80
2018-10-18T21:29:07.666Z,9.70
2018-10-18T21:31:38.660Z,9.60
2018-10-18T21:34:08.640Z,9.60
2018-10-18T21:36:39.437Z,9.50
2018-10-18T21:39:09.476Z,9.50
2018-10-18T21:41:40.288Z,9.50
2018-10-18T21:44:10.241Z,9.40
2018-10-18T21:46:40.144Z,9.40
2018-10-18T21:49:11.053Z,9.40
2018-10-18T21:51:42.941Z,9.40
2018-10-18T21:54:13.777Z,9.40
2018-10-18T21:56:43.688Z,9.40
2018-10-18T21:59:13.634Z,9.40
2018-10-18T22:01:44.764Z,9.30
2018-10-18T22:04:16.204Z,9.20
2018-10-18T22:06:47.008Z,9.20
2018-10-18T22:09:18.905Z,9.30
2018-10-18T22:11:49.817Z,9.30
2018-10-18T22:14:19.968Z,9.20
2018-10-18T22:16:50.808Z,9.30
2018-10-18T22:19:20.709Z,9.30
2018-10-18T22:21:50.616Z,9.40
2018-10-18T22:24:20.720Z,9.40
2018-10-18T22:26:56.306Z,9.40
2018-10-18T22:29:29.533Z,9.50
2018-10-18T22:31:59.441Z,9.70
2018-10-18T22:34:29.909Z,9.70
2018-10-18T22:37:03.214Z,9.70
2018-10-18T22:39:33.161Z,9.70
2018-10-18T22:42:06.817Z,9.60
2018-10-18T22:44:37.781Z,9.50
2018-10-18T22:47:08.705Z,9.60
2018-10-18T22:49:38.656Z,9.70
2018-10-18T22:52:14.101Z,9.70
2018-10-18T22:54:45.092Z,9.70
2018-10-18T22:57:18.773Z,9.90
2018-10-18T22:59:50.640Z,9.90
2018-10-18T23:02:20.557Z,9.90
2018-10-18T23:04:54.925Z,9.90
2018-10-18T23:07:24.849Z,10.00
2018-10-18T23:09:54.829Z,10.10
2018-10-18T23:12:24.780Z,10.20
2018-10-18T23:14:55.753Z,10.20
2018-10-18T23:17:31.400Z,10.30
2018-10-18T23:20:06.084Z,10.30
2018-10-18T23:22:36.950Z,10.30
2018-10-18T23:25:07.940Z,10.40
2018-10-18T23:27:39.868Z,10.40
2018-10-18T23:30:13.460Z,10.30
2018-10-18T23:32:43.540Z,10.20
2018-10-18T23:35:14.450Z,10.20
2018-10-18T23:37:44.357Z,10.10
2018-10-18T23:40:17.696Z,10.10
2018-10-18T23:42:54.729Z,10.00
2018-10-18T23:45:25.664Z,10.00
2018-10-18T23:47:55.584Z,9.80
2018-10-18T23:50:27.577Z,9.80
2018-10-18T23:52:59.497Z,9.90
2018-10-18T23:55:37.973Z,9.80
2018-10-18T23:58:07.904Z,9.90
